Time;durP1;ratioP1;P1;durP2;ratioP2;P2;SDS_P1;SDS_P2;PMS_P1;PMS_P2;Temp;Humidity;BMP_temperature;BMP_pressure;BME280_temperature;BME280_humidity;BME280_pressure;Samples;Min_cycle;Max_cycle;Signal;HPM_P1;HPM_P2
2022/11/02 00:00:48;;;;;;;10.77;10.13;;;;;;;12.45;100.00;-17796.66;5051612;28;20185;-58
2022/11/02 00:03:14;;;;;;;11.70;10.90;;;;;;;12.31;100.00;-16518.63;5051545;28;20190;-57
2022/11/02 00:05:41;;;;;;;11.47;10.50;;;;;;;12.25;100.00;-17473.50;5052193;28;20552;-57
2022/11/02 00:08:09;;;;;;;11.90;10.80;;;;;;;12.17;100.00;-17790.28;5051504;28;20185;-57
2022/11/02 00:10:35;;;;;;;10.87;10.00;;;;;;;12.17;100.00;-17790.16;5051644;28;20292;-57
2022/11/02 00:13:02;;;;;;;10.57;9.63;;;;;;;12.00;100.00;-16511.84;5051749;28;20659;-56
2022/11/02 00:15:32;;;;;;;11.23;10.17;;;;;;;11.28;100.00;-17451.34;5051755;28;20194;-57
2022/11/02 00:18:05;;;;;;;12.00;10.07;;;;;;;11.78;100.00;-18101.44;5051345;28;20182;-57
2022/11/02 00:20:32;;;;;;;10.87;9.83;;;;;;;11.72;100.00;-18099.88;5051949;28;20193;-56
2022/11/02 00:23:02;;;;;;;11.57;10.23;;;;;;;11.67;100.00;-18098.66;5051275;28;20189;-57
2022/11/02 00:25:30;;;;;;;10.07;9.37;;;;;;;11.38;100.00;-18091.91;5051546;28;20182;-57
2022/11/02 00:27:57;;;;;;;11.57;10.60;;;;;;;11.53;100.00;-18095.28;5033721;28;20243;-57
2022/11/02 00:30:24;;;;;;;11.30;10.33;;;;;;;11.60;100.00;-18097.09;5051264;28;20237;-57
2022/11/02 00:32:51;;;;;;;12.20;10.83;;;;;;;11.53;100.00;-18095.41;5051579;28;20202;-56
2022/11/02 00:35:19;;;;;;;11.80;10.73;;;;;;;11.48;100.00;-18094.19;5051552;28;20656;-56
2022/11/02 00:37:46;;;;;;;12.07;11.17;;;;;;;11.44;100.00;-18093.34;5051444;28;20612;-58
2022/11/02 00:40:13;;;;;;;11.17;10.40;;;;;;;11.41;100.00;-18092.50;5051031;28;20185;-56
2022/11/02 00:42:40;;;;;;;14.27;12.23;;;;;;;11.71;100.00;-18099.75;5050984;28;20186;-57
2022/11/02 00:45:08;;;;;;;13.07;11.70;;;;;;;11.70;100.00;-18099.38;5051680;28;20559;-56
2022/11/02 00:47:35;;;;;;;12.80;10.80;;;;;;;11.77;100.00;-18101.09;5051532;28;20580;-57
2022/11/02 00:50:02;;;;;;;10.67;9.73;;;;;;;11.69;100.00;-18099.25;5055244;28;20211;-57
2022/11/02 00:52:30;;;;;;;11.13;10.33;;;;;;;11.69;100.00;-18099.16;5054659;28;20363;-56
2022/11/02 00:54:57;;;;;;;10.47;9.27;;;;;;;11.72;100.00;-17779.66;5055020;28;20193;-56
2022/11/02 00:57:24;;;;;;;11.03;10.13;;;;;;;11.61;100.00;-16185.19;5054815;28;20192;-56
2022/11/02 00:59:51;;;;;;;11.87;10.47;;;;;;;11.48;100.00;-15864.03;5054841;28;20181;-57
2022/11/02 01:02:18;;;;;;;11.37;10.20;;;;;;;11.22;100.00;-16495.25;5054522;28;20186;-57
2022/11/02 01:04:45;;;;;;;10.50;9.70;;;;;;;11.33;100.00;-15542.59;5054956;28;20189;-56
2022/11/02 01:07:11;;;;;;;10.80;9.77;;;;;;;11.15;100.00;-15539.09;5054892;28;20281;-57
2022/11/02 01:09:40;;;;;;;10.40;9.67;;;;;;;11.17;100.00;-15857.78;5055021;28;20209;-57
2022/11/02 01:12:07;;;;;;;10.70;9.83;;;;;;;10.94;100.00;-16489.31;5054414;28;20192;-56
2022/11/02 01:14:34;;;;;;;11.77;10.67;;;;;;;11.05;100.00;-17764.06;5054411;28;20186;-57
2022/11/02 01:17:01;;;;;;;12.30;11.27;;;;;;;10.89;100.00;-18080.06;5054594;28;20554;-58
2022/11/02 01:19:28;;;;;;;11.70;10.67;;;;;;;10.84;100.00;-18078.88;5054380;28;20268;-57
2022/11/02 01:21:55;;;;;;;11.27;10.37;;;;;;;10.75;100.00;-18076.81;5054215;28;20185;-58
2022/11/02 01:24:22;;;;;;;10.73;9.77;;;;;;;10.81;100.00;-18078.16;5054516;28;20268;-57
2022/11/02 01:26:51;;;;;;;12.17;10.97;;;;;;;10.76;100.00;-18076.94;5054647;28;20189;-56
2022/11/02 01:29:19;;;;;;;11.33;10.27;;;;;;;10.90;100.00;-18080.31;5054038;28;20206;-57
2022/11/02 01:31:46;;;;;;;12.77;11.90;;;;;;;10.85;100.00;-18079.22;5054044;28;20606;-57
2022/11/02 01:34:13;;;;;;;12.00;10.90;;;;;;;11.04;100.00;-18083.56;5054145;28;20189;-56
2022/11/02 01:36:40;;;;;;;12.70;11.67;;;;;;;11.10;100.00;-18085.16;5054307;28;20229;-57
2022/11/02 01:39:07;;;;;;;10.43;9.73;;;;;;;11.05;100.00;-18083.81;5053882;28;20185;-57
2022/11/02 01:41:34;;;;;;;11.60;10.53;;;;;;;11.16;100.00;-18086.59;5054127;28;20557;-58
2022/11/02 01:44:03;;;;;;;11.40;10.53;;;;;;;11.13;100.00;-18084.00;5054163;28;20596;-57
2022/11/02 01:46:37;;;;;;;11.10;10.40;;;;;;;10.96;100.00;-18080.03;5054235;28;20297;-56
2022/11/02 01:49:10;;;;;;;12.27;11.27;;;;;;;10.95;100.00;-18081.66;5054205;28;20189;-57
2022/11/02 01:51:42;;;;;;;11.13;10.17;;;;;;;10.96;100.00;-18081.75;5053959;28;20200;-56
2022/11/02 01:54:14;;;;;;;10.93;10.03;;;;;;;10.85;100.00;-17759.34;5053729;28;20182;-56
2022/11/02 01:56:45;;;;;;;10.90;10.20;;;;;;;10.89;100.00;-16488.34;5053685;28;20281;-57
2022/11/02 01:59:19;;;;;;;11.50;10.60;;;;;;;10.95;100.00;-16171.50;5053848;28;20633;-58
2022/11/02 02:01:46;;;;;;;11.30;10.30;;;;;;;10.77;100.00;-14577.13;5053369;28;20644;-58
2022/11/02 02:04:14;;;;;;;9.83;9.23;;;;;;;10.44;100.00;-14571.09;5053799;28;20190;-57
2022/11/02 02:06:42;;;;;;;10.90;9.40;;;;;;;10.34;100.00;-13933.22;5053463;28;20185;-57
2022/11/02 02:09:10;;;;;;;10.00;9.20;;;;;;;10.62;100.00;-14256.13;5053229;28;20186;-58
2022/11/02 02:11:38;;;;;;;12.17;10.40;;;;;;;10.34;100.00;-16158.78;5052106;28;20186;-57
2022/11/02 02:14:10;;;;;;;12.23;11.10;;;;;;;10.26;100.00;-18064.97;5053282;28;20225;-57
2022/11/02 02:16:59;;;;;;;15.60;11.80;;;;;;;10.03;100.00;-18059.66;5053541;28;20251;-56
2022/11/02 02:19:40;;;;;;;13.53;11.23;;;;;;;10.00;100.00;-18058.94;5053266;28;20193;-57
2022/11/02 02:22:28;;;;;;;18.30;12.33;;;;;;;10.04;100.00;-18059.78;5053035;28;20190;-56
2022/11/02 02:25:05;;;;;;;13.83;11.40;;;;;;;10.08;100.00;-18060.75;5053064;28;20196;-57
2022/11/02 02:27:49;;;;;;;13.07;11.57;;;;;;;10.21;100.00;-18063.88;5053289;28;20188;-57
2022/11/02 02:30:17;;;;;;;15.00;11.90;;;;;;;10.14;100.00;-18062.19;5053042;28;20233;-56
2022/11/02 02:32:49;;;;;;;17.60;13.00;;;;;;;10.06;100.00;-18060.25;5052847;28;20189;-56
2022/11/02 02:35:25;;;;;;;13.40;12.00;;;;;;;10.19;100.00;-18063.41;5053185;28;20193;-56
2022/11/02 02:37:57;;;;;;;14.53;12.23;;;;;;;10.23;100.00;-18064.25;5052819;28;20188;-58
2022/11/02 02:40:31;;;;;;;13.63;12.10;;;;;;;10.14;100.00;-18062.06;5053126;28;20595;-56
2022/11/02 02:43:06;;;;;;;18.07;13.23;;;;;;;10.26;100.00;-18065.09;5052982;28;20647;-57
2022/11/02 02:45:36;;;;;;;19.50;13.23;;;;;;;10.10;100.00;-18061.22;5052968;28;20662;-57
2022/11/02 02:48:09;;;;;;;12.87;11.83;;;;;;;9.94;100.00;-18057.47;5053114;28;20197;-57
2022/11/02 02:50:41;;;;;;;12.67;11.47;;;;;;;9.94;100.00;-18057.47;5052911;28;20205;-58
2022/11/02 02:53:09;;;;;;;13.50;12.20;;;;;;;10.09;100.00;-18061.09;5052765;28;20193;-58
2022/11/02 02:55:43;;;;;;;13.70;12.33;;;;;;;9.85;100.00;-18055.19;5052745;28;20190;-58
2022/11/02 02:58:17;;;;;;;13.53;12.03;;;;;;;9.96;100.00;-18057.84;5052935;28;20189;-57
2022/11/02 03:00:45;;;;;;;12.43;11.23;;;;;;;10.11;100.00;-18061.47;5052451;28;20192;-58
2022/11/02 03:03:17;;;;;;;12.90;11.80;;;;;;;10.09;100.00;-18061.09;5053003;28;20185;-56
2022/11/02 03:05:55;;;;;;;13.07;11.93;;;;;;;9.72;100.00;-18052.03;5052402;28;20227;-56
2022/11/02 03:08:22;;;;;;;12.03;11.07;;;;;;;10.01;100.00;-18059.16;5052364;28;20181;-56
2022/11/02 03:10:57;;;;;;;12.13;11.17;;;;;;;10.05;100.00;-18060.00;5052491;28;20239;-57
2022/11/02 03:13:40;;;;;;;11.43;10.47;;;;;;;9.94;100.00;-18057.34;5051457;28;20193;-57
2022/11/02 03:16:18;;;;;;;12.20;11.27;;;;;;;10.00;100.00;-18058.81;5052253;28;20185;-57
2022/11/02 03:18:53;;;;;;;11.60;10.40;;;;;;;10.09;100.00;-18060.97;5052189;28;20181;-56
2022/11/02 03:21:28;;;;;;;13.40;10.87;;;;;;;10.17;100.00;-18062.91;5052074;28;20238;-56
2022/11/02 03:24:01;;;;;;;10.50;9.80;;;;;;;10.25;100.00;-18064.84;5052360;28;20559;-57
2022/11/02 03:26:32;;;;;;;11.77;10.67;;;;;;;10.29;100.00;-18065.69;5051922;28;20197;-57
2022/11/02 03:29:06;;;;;;;11.67;10.47;;;;;;;10.33;100.00;-18066.78;5051886;28;20196;-56
2022/11/02 03:31:38;;;;;;;10.07;9.43;;;;;;;10.41;100.00;-18068.72;5051772;28;20259;-58
2022/11/02 03:34:17;;;;;;;11.53;9.60;;;;;;;10.45;100.00;-18069.69;5052049;28;20189;-58
2022/11/02 03:36:49;;;;;;;9.53;9.00;;;;;;;10.46;100.00;-18069.94;5052358;28;20191;-57
2022/11/02 03:39:22;;;;;;;11.03;9.93;;;;;;;10.53;100.00;-18071.63;5051725;28;20185;-57
2022/11/02 03:41:51;;;;;;;10.00;9.17;;;;;;;10.42;100.00;-18068.97;5051797;28;20192;-58
2022/11/02 03:44:25;;;;;;;10.03;9.40;;;;;;;10.46;100.00;-18069.94;5051740;28;20189;-57
2022/11/02 03:46:58;;;;;;;11.57;9.33;;;;;;;10.45;100.00;-18069.69;5052066;28;20196;-56
2022/11/02 03:49:28;;;;;;;11.47;9.70;;;;;;;10.39;100.00;-18068.25;5051630;28;20277;-57
2022/11/02 03:51:58;;;;;;;10.23;9.33;;;;;;;10.25;100.00;-18064.84;5051545;28;20209;-57
2022/11/02 03:54:38;;;;;;;10.70;9.23;;;;;;;10.20;100.00;-18063.53;5051860;28;20177;-56
2022/11/02 03:57:10;;;;;;;10.20;9.37;;;;;;;10.28;100.00;-18065.56;5051666;28;20201;-58
2022/11/02 03:59:38;;;;;;;10.73;9.70;;;;;;;10.25;100.00;-18064.84;5051622;28;20192;-57
2022/11/02 04:02:05;;;;;;;14.77;13.57;;;;;;;10.19;100.00;-18063.41;5051384;28;20217;-57
2022/11/02 04:04:32;;;;;;;14.70;13.77;;;;;;;10.16;100.00;-18062.69;5051785;28;20655;-57
2022/11/02 04:06:59;;;;;;;17.23;15.60;;;;;;;10.32;100.00;-18066.41;5051813;28;20285;-56
2022/11/02 04:09:26;;;;;;;17.67;16.47;;;;;;;10.32;100.00;-18066.41;5051300;28;20568;-58
2022/11/02 04:14:39;;;;;;;17.93;16.67;;;;;;;10.04;100.00;-18059.91;5051319;28;20239;-57
2022/11/02 04:19:52;;;;;;;19.63;18.07;;;;;;;9.79;100.00;-18052.00;5051612;28;20173;-57
2022/11/02 04:25:17;;;;;;;17.30;16.20;;;;;;;9.83;100.00;-17735.44;5055183;28;20180;-56
2022/11/02 04:27:45;;;;;;;18.37;16.60;;;;;;;9.70;100.00;-18049.69;5055398;28;20193;-56
2022/11/02 04:30:14;;;;;;;16.63;15.30;;;;;;;9.54;100.00;-18046.06;5055373;28;20627;-58
2022/11/02 04:35:27;;;;;;;14.87;13.90;;;;;;;9.52;100.00;-18047.31;5055312;28;20323;-56
2022/11/02 04:40:38;;;;;;;14.53;13.63;;;;;;;9.62;100.00;-18049.75;5055220;28;20263;-58
2022/11/02 04:43:05;;;;;;;14.83;13.50;;;;;;;9.50;100.00;-18046.97;5055283;28;20185;-57
2022/11/02 04:45:34;;;;;;;15.10;13.77;;;;;;;9.51;100.00;-18047.06;5054946;28;20186;-58
2022/11/02 04:48:01;;;;;;;14.07;13.07;;;;;;;9.69;100.00;-18051.31;5055312;28;20288;-56
2022/11/02 04:50:28;;;;;;;14.67;13.60;;;;;;;9.71;100.00;-18051.78;5055158;28;20590;-57
2022/11/02 04:52:56;;;;;;;15.57;14.17;;;;;;;9.53;100.00;-18047.69;5054818;28;20190;-57
2022/11/02 04:55:24;;;;;;;23.27;21.13;;;;;;;9.57;100.00;-18048.66;5055290;28;20186;-58
2022/11/02 04:57:50;;;;;;;26.93;24.23;;;;;;;9.72;100.00;-18052.03;5055235;28;20629;-57
2022/11/02 05:00:18;;;;;;;36.20;27.43;;;;;;;9.81;100.00;-18054.22;5054655;28;20181;-57
2022/11/02 05:02:48;;;;;;;38.97;27.73;;;;;;;9.85;100.00;-18055.19;5055076;28;20190;-57
2022/11/02 05:05:15;;;;;;;35.00;28.50;;;;;;;9.92;100.00;-18056.88;5054621;28;20185;-57
2022/11/02 05:07:42;;;;;;;37.50;28.87;;;;;;;10.00;100.00;-18058.81;5054846;28;20272;-57
2022/11/02 05:10:10;;;;;;;37.03;30.37;;;;;;;10.03;100.00;-18059.66;5054359;28;20185;-57
2022/11/02 05:12:37;;;;;;;50.57;37.67;;;;;;;10.08;100.00;-18060.75;5054489;28;20185;-57
2022/11/02 05:15:04;;;;;;;58.53;39.60;;;;;;;10.05;100.00;-18060.00;5054389;28;20276;-57
2022/11/02 05:17:31;;;;;;;72.80;45.57;;;;;;;10.06;100.00;-18060.38;5054596;28;20192;-56
2022/11/02 05:20:00;;;;;;;111.70;51.80;;;;;;;10.13;100.00;-18061.81;5054552;28;20689;-56
2022/11/02 05:22:26;;;;;;;126.23;57.50;;;;;;;10.18;100.00;-18063.16;5054236;28;20231;-57
2022/11/02 05:24:53;;;;;;;160.40;56.17;;;;;;;10.16;100.00;-18062.56;5054514;28;20189;-57
2022/11/02 05:27:20;;;;;;;123.33;55.67;;;;;;;10.30;100.00;-18066.06;5054336;28;20186;-58
2022/11/02 05:29:47;;;;;;;84.87;55.50;;;;;;;10.28;100.00;-18065.56;5054009;28;20181;-57
2022/11/02 05:32:14;;;;;;;126.37;53.43;;;;;;;10.33;100.00;-18066.78;5053829;28;20233;-57
2022/11/02 05:34:42;;;;;;;143.43;47.60;;;;;;;10.45;100.00;-18069.56;5052833;28;20185;-59
2022/11/02 05:37:11;;;;;;;89.30;44.60;;;;;;;10.47;100.00;-18070.06;5054191;28;20196;-58
2022/11/02 05:39:37;;;;;;;106.53;41.90;;;;;;;10.36;100.00;-18067.50;5054268;28;20280;-57
2022/11/02 05:42:05;;;;;;;135.03;43.00;;;;;;;10.48;100.00;-18070.28;5054132;28;20198;-58
2022/11/02 05:44:32;;;;;;;77.27;42.77;;;;;;;10.52;100.00;-18071.38;5054076;28;20542;-58
2022/11/02 05:46:58;;;;;;;62.30;40.40;;;;;;;10.57;100.00;-18072.34;5054166;28;20563;-57
2022/11/02 05:49:25;;;;;;;50.37;39.20;;;;;;;10.59;100.00;-18072.81;5054197;28;20648;-57
2022/11/02 05:51:52;;;;;;;55.67;41.00;;;;;;;10.68;100.00;-18075.13;5053841;28;20300;-57
2022/11/02 05:54:21;;;;;;;53.67;40.60;;;;;;;10.85;100.00;-18079.09;5054001;28;20189;-57
2022/11/02 05:56:48;;;;;;;62.87;41.67;;;;;;;11.20;100.00;-18087.56;5053985;28;20192;-58
2022/11/02 05:59:15;;;;;;;47.17;33.70;;;;;;;11.50;100.00;-18094.56;5053615;28;20190;-57
2022/11/02 06:01:42;;;;;;;42.90;34.37;;;;;;;11.69;100.00;-18097.28;5053593;28;20188;-57
2022/11/02 06:04:09;;;;;;;38.77;31.87;;;;;;;11.87;100.00;-14278.38;5053689;28;20185;-57
2022/11/02 06:06:36;;;;;;;32.30;28.77;;;;;;;12.40;100.00;-12692.00;5053282;28;20185;-59
2022/11/02 06:09:02;;;;;;;30.87;27.80;;;;;;;12.85;100.00;-9502.81;5053766;28;20185;-58
2022/11/02 06:11:31;;;;;;;36.03;28.50;;;;;;;13.25;100.00;-214.50;5053880;28;20232;-58
2022/11/02 06:13:58;;;;;;;36.70;28.27;;;;;;;13.49;100.00;7821.53;5053582;28;20556;-58
2022/11/02 06:16:25;;;;;;;47.17;29.17;;;;;;;13.46;100.00;14262.84;5053572;28;20186;-57
2022/11/02 06:18:51;;;;;;;44.57;30.13;;;;;;;13.62;100.00;14912.47;5053203;28;20192;-57
2022/11/02 06:21:18;;;;;;;38.10;26.60;;;;;;;14.04;100.00;20093.09;5053438;28;20185;-57
2022/11/02 06:23:47;;;;;;;36.40;27.27;;;;;;;14.43;100.00;28528.53;5053412;28;20193;-58
2022/11/02 06:26:17;;;;;;;35.77;25.70;;;;;;;14.91;100.00;44494.16;5051989;28;20201;-58
2022/11/02 06:28:45;;;;;;;37.23;26.47;;;;;;;15.46;100.00;69761.69;5052928;28;20185;-58
2022/11/02 06:31:12;;;;;;;34.70;26.03;;;;;;;16.09;100.00;108565.16;5052864;28;20233;-58
2022/11/02 06:33:39;;;;;;;39.13;27.10;;;;;;;16.21;100.00;148887.50;5053312;28;20288;-58
2022/11/02 06:36:07;;;;;;;46.40;27.87;;;;;;;16.71;100.00;150238.09;5052707;28;20196;-57
2022/11/02 06:38:34;;;;;;;36.43;26.87;;;;;;;17.24;100.00;150371.44;5052647;28;20295;-58
2022/11/02 06:41:03;;;;;;;34.67;26.40;;;;;;;17.60;100.00;150461.75;5052979;28;20207;-62
2022/11/02 06:43:30;;;;;;;44.37;25.97;;;;;;;17.83;100.00;150518.91;5052906;28;20216;-60
2022/11/02 06:45:59;;;;;;;30.33;26.07;;;;;;;18.22;100.00;150618.06;5052695;28;20572;-59
2022/11/02 06:48:27;;;;;;;29.30;24.73;;;;;;;18.54;100.00;150698.22;5052857;28;20284;-58
2022/11/02 06:50:54;;;;;;;34.80;24.83;;;;;;;18.67;100.00;150731.28;5052264;28;20205;-58
2022/11/02 06:53:21;;;;;;;26.37;23.87;;;;;;;18.55;100.00;150700.75;5052501;28;20221;-59
2022/11/02 06:55:52;;;;;;;30.27;24.17;;;;;;;19.12;100.00;150843.25;5052569;28;20193;-59
2022/11/02 06:58:22;;;;;;;27.53;24.80;;;;;;;19.34;100.00;150899.25;5052272;28;20193;-58
2022/11/02 07:00:49;;;;;;;27.07;24.30;;;;;;;19.60;100.00;150964.19;5052701;28;20197;-58
2022/11/02 07:03:17;;;;;;;27.00;24.73;;;;;;;19.81;100.00;151016.38;5052123;28;20276;-58
2022/11/02 07:05:50;;;;;;;27.73;24.93;;;;;;;19.92;100.00;151044.38;5052392;28;20668;-58
2022/11/02 07:08:18;;;;;;;28.07;25.07;;;;;;;19.88;100.00;151034.19;5051874;28;20198;-60
2022/11/02 07:10:45;;;;;;;29.07;26.00;;;;;;;20.04;100.00;151074.91;5051992;28;20182;-58
2022/11/02 07:13:13;;;;;;;30.07;27.03;;;;;;;20.40;100.00;151165.38;5086797;28;20296;-58
2022/11/02 07:15:40;;;;;;;30.37;25.90;;;;;;;20.79;100.00;151263.47;5092352;28;20207;-59
2022/11/02 07:18:07;;;;;;;30.17;27.03;;;;;;;20.67;100.00;151232.84;5092744;28;20183;-57
2022/11/02 07:20:36;;;;;;;34.55;26.70;;;;;;;21.10;100.00;151342.41;5092563;28;20192;-60
2022/11/02 07:23:03;;;;;;;29.38;26.17;;;;;;;20.77;100.00;151258.34;5092508;28;20547;-58
2022/11/02 07:25:35;;;;;;;28.63;25.57;;;;;;;20.88;100.00;151287.63;5092166;28;20645;-59
2022/11/02 07:28:05;;;;;;;28.85;25.45;;;;;;;21.04;100.00;151325.88;5092417;28;20230;-60
2022/11/02 07:30:34;;;;;;;30.58;27.33;;;;;;;22.08;100.00;151588.50;5092389;28;20265;-61
2022/11/02 07:33:01;;;;;;;32.20;27.30;;;;;;;23.21;100.00;151875.50;5092295;28;20212;-60
2022/11/02 07:35:28;;;;;;;28.65;25.65;;;;;;;23.72;100.00;152003.16;5093003;28;20195;-61
2022/11/02 07:37:58;;;;;;;33.72;25.88;;;;;;;24.05;100.00;152086.16;5092615;28;20659;-58
2022/11/02 07:40:25;;;;;;;26.42;23.73;;;;;;;24.06;100.00;152088.72;5092650;28;20219;-58
2022/11/02 07:42:53;;;;;;;27.75;24.58;;;;;;;23.82;100.00;152028.69;5092484;28;20180;-59
2022/11/02 07:45:20;;;;;;;27.83;24.88;;;;;;;23.92;100.00;152052.97;5077478;28;20667;-57
2022/11/02 07:47:48;;;;;;;27.20;24.33;;;;;;;24.57;100.00;152217.69;5072020;28;20713;-59
2022/11/02 07:50:18;;;;;;;27.45;23.83;;;;;;;24.95;100.00;152313.59;5071270;28;20725;-58
2022/11/02 07:52:47;;;;;;;27.17;23.40;;;;;;;25.59;100.00;152474.63;5071193;28;20781;-58
2022/11/02 07:55:20;;;;;;;25.63;22.98;;;;;;;25.82;100.00;152533.38;5071447;28;20271;-58
2022/11/02 07:57:53;;;;;;;26.20;23.83;;;;;;;26.24;100.00;152639.50;5071036;28;20602;-59
2022/11/02 08:00:20;;;;;;;23.83;21.63;;;;;;;26.86;95.77;152795.59;5071268;28;20184;-58
2022/11/02 08:02:47;;;;;;;25.17;22.58;;;;;;;26.97;96.29;152823.72;5071516;28;20187;-58
2022/11/02 08:05:14;;;;;;;26.42;23.58;;;;;;;27.35;94.39;152920.94;5071651;28;20263;-59
2022/11/02 08:07:41;;;;;;;24.55;22.02;;;;;;;27.32;93.22;152913.28;5053700;28;20272;-58
2022/11/02 08:10:11;;;;;;;26.02;21.58;;;;;;;27.14;92.61;152868.50;5071191;28;20189;-58
2022/11/02 08:12:40;;;;;;;23.88;21.35;;;;;;;28.02;89.08;153089.88;5070996;28;20205;-58
2022/11/02 08:15:10;;;;;;;23.27;21.13;;;;;;;27.88;89.59;153055.31;5053754;28;20206;-59
2022/11/02 08:17:37;;;;;;;25.83;21.75;;;;;;;27.41;91.12;152936.31;5071696;28;20228;-57
2022/11/02 08:20:06;;;;;;;23.38;20.95;;;;;;;27.73;92.46;153015.66;5071551;28;20195;-58
2022/11/02 08:22:37;;;;;;;27.73;20.80;;;;;;;28.44;86.10;153196.16;5071196;28;20235;-57
2022/11/02 08:25:05;;;;;;;26.27;18.83;;;;;;;28.23;86.51;153143.69;5071234;28;20189;-58
2022/11/02 08:27:32;;;;;;;19.67;17.75;;;;;;;28.28;88.68;153155.22;5071482;28;20215;-58
2022/11/02 08:30:03;;;;;;;20.02;17.80;;;;;;;29.18;81.53;153383.19;5071605;28;20611;-58
2022/11/02 08:32:30;;;;;;;23.35;18.65;;;;;;;28.32;86.33;153165.47;5070497;28;20324;-58
2022/11/02 08:34:57;;;;;;;23.35;18.20;;;;;;;29.28;80.03;153408.81;5070454;28;20276;-58
2022/11/02 08:37:24;;;;;;;25.50;18.65;;;;;;;29.70;76.14;153515.19;5070523;28;20204;-58
2022/11/02 08:39:50;;;;;;;24.25;19.90;;;;;;;28.83;80.18;153296.09;5071202;28;20599;-59
2022/11/02 08:42:24;;;;;;;21.08;17.23;;;;;;;29.25;78.08;153402.41;5071110;28;20275;-58
2022/11/02 08:44:51;;;;;;;26.15;16.58;;;;;;;29.13;76.67;153370.38;5071082;28;20189;-58
2022/11/02 08:47:20;;;;;;;16.85;15.13;;;;;;;30.73;69.43;153776.72;5071487;28;20249;-58
2022/11/02 08:49:47;;;;;;;20.00;15.43;;;;;;;31.45;64.32;153958.84;5071057;28;20194;-58
2022/11/02 08:52:14;;;;;;;15.90;14.32;;;;;;;31.04;64.40;153854.97;5071104;28;20223;-57
2022/11/02 08:54:43;;;;;;;15.77;12.18;;;;;;;31.46;62.39;153962.72;5071181;28;20189;-57
2022/11/02 08:57:10;;;;;;;12.80;11.98;;;;;;;31.04;62.13;153856.28;5070740;28;20195;-58
2022/11/02 08:59:37;;;;;;;13.90;12.52;;;;;;;30.99;62.49;153843.38;5083534;28;20195;-58
2022/11/02 09:02:04;;;;;;;13.95;12.50;;;;;;;31.08;63.04;153866.53;5075494;28;20199;-59
2022/11/02 09:04:32;;;;;;;19.65;14.88;;;;;;;31.64;60.64;154008.94;5059129;28;20196;-58
2022/11/02 09:06:59;;;;;;;16.00;14.10;;;;;;;31.98;57.14;154094.91;5060333;28;20292;-57
2022/11/02 09:09:26;;;;;;;17.25;14.02;;;;;;;31.62;59.86;154002.50;5071482;28;20630;-58
2022/11/02 09:11:53;;;;;;;17.40;14.18;;;;;;;31.72;57.81;154028.16;5073577;28;20208;-59
2022/11/02 09:14:20;;;;;;;24.55;14.95;;;;;;;31.86;57.10;154064.13;5057067;28;20208;-57
2022/11/02 09:16:47;;;;;;;16.13;14.63;;;;;;;33.39;52.27;154451.84;5055439;28;20189;-59
2022/11/02 09:19:14;;;;;;;18.60;14.98;;;;;;;33.82;49.32;154562.28;5074073;28;20191;-58
2022/11/02 09:21:42;;;;;;;20.85;15.73;;;;;;;33.90;48.92;154581.59;5074022;28;20184;-58
2022/11/02 09:24:10;;;;;;;16.88;14.60;;;;;;;34.59;47.77;154756.31;5073452;28;20192;-57
2022/11/02 09:26:37;;;;;;;20.50;16.08;;;;;;;35.63;45.59;155022.53;5074206;28;20636;-57
2022/11/02 09:29:04;;;;;;;16.88;14.68;;;;;;;35.19;43.92;154909.34;5074195;28;20184;-59
2022/11/02 09:31:30;;;;;;;19.85;15.00;;;;;;;35.67;43.87;155032.81;5073502;28;20228;-58
2022/11/02 09:33:57;;;;;;;18.45;16.00;;;;;;;35.37;43.76;154955.63;5073627;28;20196;-58
2022/11/02 09:36:24;;;;;;;19.83;15.98;;;;;;;35.02;44.96;154866.88;5073968;28;20180;-58
2022/11/02 09:38:53;;;;;;;21.77;15.88;;;;;;;35.25;44.40;154924.78;5073335;28;20225;-57
2022/11/02 09:41:26;;;;;;;23.02;15.02;;;;;;;34.86;44.80;154825.78;5073431;28;20196;-58
2022/11/02 09:44:02;;;;;;;27.85;14.95;;;;;;;34.76;44.52;154801.34;5053536;28;20189;-58
2022/11/02 09:46:32;;;;;;;23.02;14.43;;;;;;;35.14;43.44;154897.72;5063130;28;20279;-59
2022/11/02 09:49:03;;;;;;;14.68;13.18;;;;;;;34.38;44.80;154703.63;5072695;28;20231;-58
2022/11/02 09:51:35;;;;;;;19.52;14.35;;;;;;;34.06;45.45;154621.41;5073853;28;20193;-59
2022/11/02 09:54:08;;;;;;;23.77;13.25;;;;;;;34.41;45.06;154711.38;5073141;28;20193;-58
2022/11/02 09:56:36;;;;;;;18.10;13.80;;;;;;;34.17;45.97;154650.97;5074555;28;20246;-59
2022/11/02 09:59:10;;;;;;;16.75;12.77;;;;;;;34.45;44.01;154721.66;5073913;28;20188;-58
2022/11/02 10:01:55;;;;;;;19.92;12.63;;;;;;;35.23;41.63;154919.63;5076033;28;20570;-60
2022/11/02 10:04:40;;;;;;;14.13;11.35;;;;;;;34.98;41.78;154855.31;5055935;28;20611;-60
2022/11/02 10:07:14;;;;;;;18.35;12.45;;;;;;;35.34;41.71;154947.94;5073384;28;20275;-60
2022/11/02 10:09:50;;;;;;;21.60;11.98;;;;;;;34.61;42.47;154762.75;5074236;28;20198;-59
2022/11/02 10:12:26;;;;;;;21.17;11.43;;;;;;;34.38;42.51;154704.94;5073254;28;20215;-59
2022/11/02 10:15:00;;;;;;;20.95;10.93;;;;;;;33.95;43.45;154595.69;5073466;28;20271;-60
2022/11/02 10:17:30;;;;;;;18.55;10.07;;;;;;;34.50;41.93;154734.47;5073436;28;20188;-59
2022/11/02 10:20:04;;;;;;;16.25;9.63;;;;;;;34.61;42.51;154762.75;5076053;28;20239;-59
2022/11/02 10:22:34;;;;;;;17.33;9.95;;;;;;;34.60;40.69;154760.19;5074833;28;20188;-60
2022/11/02 10:25:07;;;;;;;17.98;8.73;;;;;;;34.87;42.13;154828.34;5073148;28;20319;-59
2022/11/02 10:27:37;;;;;;;16.52;8.98;;;;;;;35.10;41.49;154887.44;5074531;28;20195;-58
2022/11/02 10:30:09;;;;;;;19.98;9.10;;;;;;;34.77;42.05;154802.63;5056556;28;20184;-58
2022/11/02 10:32:44;;;;;;;11.93;8.75;;;;;;;34.53;41.67;154740.91;5073958;28;20711;-59
2022/11/02 10:35:19;;;;;;;9.60;8.68;;;;;;;35.90;40.02;155089.38;5077359;28;20184;-59
2022/11/02 10:37:58;;;;;;;20.95;8.45;;;;;;;36.11;39.13;155143.44;5072957;28;20210;-58
2022/11/02 10:40:43;;;;;;;18.70;8.63;;;;;;;36.15;38.85;155153.72;5072889;28;20188;-58
2022/11/02 10:43:25;;;;;;;15.27;8.82;;;;;;;37.14;37.01;155405.91;5073150;28;20185;-59
2022/11/02 10:46:19;;;;;;;13.60;7.32;;;;;;;38.26;35.01;155690.44;5072815;28;20218;-59
2022/11/02 10:48:56;;;;;;;22.00;7.90;;;;;;;37.70;36.25;155548.78;5072941;28;20180;-58
2022/11/02 10:51:23;;;;;;;20.42;7.82;;;;;;;36.22;37.60;155171.72;5073111;28;20184;-58
2022/11/02 10:53:52;;;;;;;12.85;8.07;;;;;;;37.34;36.01;155457.41;5073198;28;20846;-59
2022/11/02 10:56:22;;;;;;;20.92;8.23;;;;;;;38.38;34.69;155721.31;5073356;28;20226;-63
2022/11/02 10:58:55;;;;;;;17.25;7.60;;;;;;;38.69;33.81;155801.22;5072407;28;20192;-57
2022/11/02 11:01:22;;;;;;;14.13;7.57;;;;;;;39.28;33.87;155950.66;5072793;28;20212;-58
2022/11/02 11:03:55;;;;;;;19.40;8.40;;;;;;;38.84;33.07;155839.81;5072266;28;20563;-59
2022/11/02 11:06:23;;;;;;;15.38;8.10;;;;;;;38.68;33.40;155797.34;5072410;28;20191;-59
2022/11/02 11:08:52;;;;;;;12.27;8.20;;;;;;;37.97;34.49;155615.78;5072354;28;20208;-58
2022/11/02 11:11:24;;;;;;;9.40;8.48;;;;;;;35.05;38.01;154873.34;5072099;28;20188;-58
2022/11/02 11:13:57;;;;;;;8.98;8.05;;;;;;;33.53;42.20;154487.75;5071842;28;20208;-58
2022/11/02 11:16:36;;;;;;;11.73;8.55;;;;;;;31.85;46.65;154061.53;5071760;28;20210;-57
2022/11/02 11:19:18;;;;;;;16.75;9.82;;;;;;;30.34;52.97;153679.25;5068701;28;20289;-58
2022/11/02 11:21:45;;;;;;;10.57;7.68;;;;;;;30.16;57.12;153633.13;5052303;28;20185;-57
2022/11/02 11:24:21;;;;;;;16.35;8.52;;;;;;;29.69;59.73;153512.63;5052027;28;20190;-58
2022/11/02 11:27:15;;;;;;;16.63;8.30;;;;;;;29.14;64.05;153374.25;5051841;28;20205;-59
2022/11/02 11:29:47;;;;;;;17.20;7.80;;;;;;;28.94;66.42;153324.25;5051987;28;20189;-57
2022/11/02 11:32:17;;;;;;;21.85;7.53;;;;;;;28.64;65.94;153246.13;5051211;28;20239;-57